Overview Statistics Trail Chart Weather Telemetry Raw packets
 

This is the latest recevied packets stored in our database for station/object TA3Q-1. If no packets are shown the sender has not sent any packets the latest 24 hours.

If you compare the raw packets with similar data from other websites it may differ (especially the path), the reason is that we are not collecting packets from the same APRS-IS servers. Each APRS-IS server performes duplicate filtering, and which packet that is considered to be a duplicate may differ depending on which APRS-IS server you receive your data from.

<< 1 2 3 4 >>

1788675896: TA3Q-1>APLIGP,WIDE1-1,qAS,TA3Q-2:/062450h3836.69N/02723.22E<265/000/A=000451 Temp: 25.90C Humid:45.95% Batt: 3.3V

1788675598: TA3Q-1>APLIGP,WIDE1-1,qAS,TA3Q-2:/061943h3836.69N/02723.23E<022/000/A=000495 Temp: 25.89C Humid:45.92% Batt: 3.3V

1788675282: TA3Q-1>APLIGP,WIDE1-1,qAS,TA3Q-2:/061435h3836.69N/02723.22E<063/000/A=000512 Temp: 25.83C Humid:45.91% Batt: 3.3V

1788675145: TA3Q-1>APLIGP,WIDE1-1,qAS,TA3Q-2:> 145.500 / 433.500 Digital 439.175 QRV 73

1788674978: TA3Q-1>APLIGP,WIDE1-1,qAS,TA3Q-2:/060931h3836.69N/02723.23E<026/000/A=000505 Temp: 25.81C Humid:45.95% Batt: 3.3V

1788674363: TA3Q-1>APLIGP,WIDE1-1,qAS,TA3Q-2:/055917h3836.70N/02723.22E<219/000/A=000472 Temp: 25.77C Humid:45.82% Batt: 3.3V

1788674056: TA3Q-1>APLIGP,WIDE1-1,qAS,TA3Q-2:/055407h3836.69N/02723.23E<171/000/A=000450 Temp: 25.84C Humid:45.79% Batt: 3.3V 145.500 / 433.500 Digital 439.175 QRV 73

1788673748: TA3Q-1>APLIGP,WIDE1-1,qAS,TA3Q-2:/054902h3836.69N/02723.23E<269/000/A=000446 Temp: 25.81C Humid:45.81% Batt: 3.3V

1788673441: TA3Q-1>APLIGP,WIDE1-1,qAS,TA3Q-2:/054355h3836.69N/02723.23E<269/000/A=000442 Temp: 25.81C Humid:45.81% Batt: 3.3V

1788673343: TA3Q-1>APLIGP,WIDE1-1,qAS,TA3Q-2:> 145.500 / 433.500 Digital 439.175 QRV 73

1788672828: TA3Q-1>APLIGP,WIDE1-1,qAS,TA3Q-2:/053342h3836.69N/02723.22E<244/000/A=000437 Temp: 25.77C Humid:45.82% Batt: 3.3V

1788672521: TA3Q-1>APLIGP,WIDE1-1,qAS,TA3Q-2:/052835h3836.69N/02723.22E<261/000/A=000438 Temp: 25.76C Humid:45.85% Batt: 3.3V

1788672215: TA3Q-1>APLIGP,WIDE1-1,qAS,TA3Q-2:/052329h3836.69N/02723.23E<261/000/A=000437 Temp: 25.75C Humid:45.93% Batt: 3.3V

1788671910: TA3Q-1>APLIGP,WIDE1-1,qAS,TA3Q-2:/051822h3836.69N/02723.23E<077/000/A=000447 Temp: 25.72C Humid:45.92% Batt: 3.3V

1788671539: TA3Q-1>APLIGP,WIDE1-1,qAS,TA3Q-2:> 145.500 / 433.500 Digital 439.175 QRV 73

1788671295: TA3Q-1>APLIGP,WIDE1-1,qAS,TA3Q-2:/050809h3836.69N/02723.23E<271/000/A=000437 Temp: 25.69C Humid:45.99% Batt: 3.3V

1788670988: TA3Q-1>APLIGP,WIDE1-1,qAS,TA3Q-2:/050301h3836.69N/02723.22E<172/000/A=000435 Temp: 25.64C Humid:45.97% Batt: 3.3V 145.500 / 433.500 Digital 439.175 QRV 73

1788670679: TA3Q-1>APLIGP,WIDE1-1,qAS,TA3Q-2:/045754h3836.70N/02723.22E<173/000/A=000437 Temp: 25.67C Humid:45.99% Batt: 3.3V

1788670373: TA3Q-1>APLIGP,WIDE1-1,qAS,TA3Q-2:/045247h3836.70N/02723.23E<069/000/A=000441 Temp: 25.66C Humid:45.99% Batt: 3.3V

1788669761: TA3Q-1>APLIGP,WIDE1-1,qAS,TA3Q-2:/044235h3836.69N/02723.22E<201/000/A=000443 Temp: 25.70C Humid:45.95% Batt: 3.3V

1788669736: TA3Q-1>APLIGP,WIDE1-1,qAS,TA3Q-2:> 145.500 / 433.500 Digital 439.175 QRV 73

1788669455: TA3Q-1>APLIGP,WIDE1-1,qAS,TA3Q-2:/043729h3836.69N/02723.22E<225/000/A=000434 Temp: 25.71C Humid:45.98% Batt: 3.3V

1788669149: TA3Q-1>APLIGP,WIDE1-1,qAS,TA3Q-2:/043222h3836.70N/02723.23E<077/000/A=000430 Temp: 25.75C Humid:45.96% Batt: 3.3V

1788668843: TA3Q-1>APLIGP,WIDE1-1,qAS,TA3Q-2:/042714h3836.69N/02723.22E<057/000/A=000420 Temp: 25.75C Humid:45.93% Batt: 3.3V

1788668227: TA3Q-1>APLIGP,WIDE1-1,qAS,TA3Q-2:/041702h3836.69N/02723.22E<135/000/A=000404 Temp: 25.81C Humid:45.93% Batt: 3.3V